Accueil
METAR-TAF:

METAR-TAF

Aéroports :

Newberry, Caroline du Sud, États-Unis

latitude: 34-18-34N, longitude: 081-38-26W, altitude: 174 m

Observation

Le bulletin a été fait il y a 16 minutes, à 06:15 UTC
Vent 10 kt de ouest/sud-ouest avec des rafales jusqu'à 14 kt
Température 11°C
Humidité 47%
Pression 1023 hPa
Visibilité: 16.1 km
Nuages fragmentés à une hauteur de 3200 ft
Ciel couvert à une hauteur de 4000 ft

METAR: KEOE 200615Z AUTO 25010G14KT 10SM BKN032 OVC040 11/00 A3022 RMK AO2

Heure: 01:31 (06:31 UTC)


TAF: absent

Observations et prévisions météorologiques de plus de 4000 aéroports (messages METAR et TAF).

Les stations disponibles sont représentées par des disques jaunes et rouges sur la carte.

Passer la souris dessus pour voir le nom de la station.

Cliquer dessus pour voir les observations et prévisions météorologiques.

Pour changer de carte: cliquez sur les boutons verts avec une croix noire pour zoomer, sur le bouton vert avec un tiret pour effectuer un zoom arrière, ou sur les flèches vertes pour les cartes adjacentes.


METAR-TAF: